Time;durP1;ratioP1;P1;durP2;ratioP2;P2;SDS_P1;SDS_P2;PMS_P1;PMS_P2;Temp;Humidity;BMP_temperature;BMP_pressure;BME280_temperature;BME280_humidity;BME280_pressure;Samples;Min_cycle;Max_cycle;Signal;HPM_P1;HPM_P2
2021/04/15 00:00:47;;;;;;;7.07;3.70;;;3.20;99.90;;;;;;5077035;28;20064;-66
2021/04/15 00:03:18;;;;;;;5.03;3.78;;;3.10;99.90;;;;;;5074946;28;20087;-66
2021/04/15 00:05:45;;;;;;;9.07;4.22;;;3.00;99.90;;;;;;5074831;28;20025;-66
2021/04/15 00:08:11;;;;;;;6.05;3.65;;;2.90;99.90;;;;;;5075991;28;20424;-66
2021/04/15 00:10:40;;;;;;;6.70;4.30;;;2.80;99.90;;;;;;5075110;28;20113;-66
2021/04/15 00:13:12;;;;;;;6.85;3.75;;;2.80;99.90;;;;;;5076558;28;20024;-66
2021/04/15 00:15:37;;;;;;;6.70;4.35;;;2.80;99.90;;;;;;5076463;28;20094;-66
2021/04/15 00:18:03;;;;;;;6.40;4.22;;;2.80;99.90;;;;;;5076139;28;20466;-66
2021/04/15 00:20:29;;;;;;;7.82;4.70;;;3.00;99.90;;;;;;5075891;28;20458;-66
2021/04/15 00:22:54;;;;;;;7.90;4.60;;;3.00;99.90;;;;;;5076355;28;20029;-66
2021/04/15 00:25:20;;;;;;;5.80;4.35;;;3.10;99.90;;;;;;5076298;28;20085;-65
2021/04/15 00:27:46;;;;;;;8.65;4.50;;;3.20;99.90;;;;;;5076172;28;20021;-65
2021/04/15 00:30:12;;;;;;;7.90;3.95;;;3.30;99.90;;;;;;5075981;28;20028;-66
2021/04/15 00:32:38;;;;;;;9.30;4.72;;;3.30;99.90;;;;;;5076169;28;20028;-66
2021/04/15 00:35:04;;;;;;;9.35;4.85;;;3.30;99.90;;;;;;5074334;28;20457;-66
2021/04/15 00:37:30;;;;;;;6.65;4.32;;;3.30;99.90;;;;;;5076100;28;20021;-65
2021/04/15 00:39:55;;;;;;;9.77;4.55;;;3.40;99.90;;;;;;5074875;28;20488;-66
2021/04/15 00:42:21;;;;;;;8.40;5.05;;;3.40;99.90;;;;;;5074836;28;20481;-66
2021/04/15 00:44:48;;;;;;;13.43;5.20;;;3.40;99.90;;;;;;5074538;28;20431;-66
2021/04/15 00:47:21;;;;;;;7.60;5.10;;;3.40;99.90;;;;;;5075556;28;20044;-66
2021/04/15 00:49:58;;;;;;;9.80;5.47;;;3.40;99.90;;;;;;5057392;28;20067;-65
2021/04/15 00:52:27;;;;;;;9.65;5.03;;;3.40;99.90;;;;;;5074855;28;20029;-66
2021/04/15 00:55:00;;;;;;;7.47;5.28;;;3.40;99.90;;;;;;5075826;28;20031;-66
2021/04/15 00:57:27;;;;;;;;;;;3.40;99.90;;;;;;5074771;28;20036;-66
2021/04/15 00:59:54;;;;;;;8.18;4.88;;;3.40;99.90;;;;;;5108196;28;19943;-66
2021/04/15 01:02:23;;;;;;;8.25;5.40;;;3.50;99.90;;;;;;5075683;28;20028;-66
2021/04/15 01:04:54;;;;;;;10.02;5.95;;;3.40;99.90;;;;;;5075647;28;20016;-66
2021/04/15 01:07:20;;;;;;;9.18;5.85;;;3.40;99.90;;;;;;5075243;28;20024;-66
2021/04/15 01:09:48;;;;;;;7.43;5.78;;;3.40;99.90;;;;;;5075534;28;20424;-66
2021/04/15 01:12:38;;;;;;;9.80;6.28;;;3.40;99.90;;;;;;5075492;28;20024;-66
2021/04/15 01:15:14;;;;;;;12.65;6.20;;;3.40;99.90;;;;;;5074733;28;20025;-66
2021/04/15 01:18:00;;;;;;;8.45;5.80;;;3.30;99.90;;;;;;5075117;28;20024;-66
2021/04/15 01:21:05;;;;;;;12.32;6.47;;;3.30;99.90;;;;;;5075005;28;20380;-66
2021/04/15 01:23:44;;;;;;;9.77;6.07;;;3.10;99.90;;;;;;5074498;28;20024;-66
2021/04/15 01:26:45;;;;;;;11.63;7.10;;;3.10;99.90;;;;;;5075189;28;20461;-65
2021/04/15 01:29:36;;;;;;;11.75;6.70;;;3.00;99.90;;;;;;5074503;28;20095;-65
2021/04/15 01:32:26;;;;;;;10.48;6.75;;;2.90;99.90;;;;;;5073659;28;20036;-66
2021/04/15 01:35:16;;;;;;;11.40;6.32;;;2.90;99.90;;;;;;5074431;28;20103;-66
2021/04/15 01:37:50;;;;;;;10.65;6.80;;;2.90;99.90;;;;;;5075005;28;20086;-66
2021/04/15 01:40:39;;;;;;;11.98;7.00;;;2.80;99.90;;;;;;5074883;28;20012;-66
2021/04/15 01:43:45;;;;;;;12.65;7.55;;;2.80;99.90;;;;;;5074584;28;20025;-65
2021/04/15 01:46:12;;;;;;;15.80;6.90;;;2.80;99.90;;;;;;5072951;28;20023;-66
2021/04/15 01:48:51;;;;;;;11.05;7.35;;;2.90;99.90;;;;;;5072729;28;20045;-66
2021/04/15 01:51:36;;;;;;;11.48;8.02;;;2.90;99.90;;;;;;5073643;28;20021;-66
2021/04/15 01:54:09;;;;;;;12.43;7.90;;;2.80;99.90;;;;;;5074681;28;20016;-66
2021/04/15 01:56:47;;;;;;;14.10;8.82;;;2.80;99.90;;;;;;5073629;28;20374;-66
2021/04/15 01:59:26;;;;;;;18.83;9.93;;;2.70;99.90;;;;;;5072741;28;20474;-65
2021/04/15 02:01:55;;;;;;;14.80;8.43;;;2.60;99.90;;;;;;5072727;28;20035;-66
2021/04/15 02:04:26;;;;;;;22.58;9.93;;;2.60;99.90;;;;;;5072921;28;20378;-66
2021/04/15 02:07:01;;;;;;;14.77;9.45;;;2.50;99.90;;;;;;5073375;28;20032;-66
2021/04/15 02:09:28;;;;;;;20.95;10.07;;;2.50;99.90;;;;;;5074400;28;20074;-66
2021/04/15 02:12:05;;;;;;;16.50;8.68;;;2.40;99.90;;;;;;5072697;28;20028;-66
2021/04/15 02:14:35;;;;;;;16.08;9.02;;;2.40;99.90;;;;;;5074313;28;20358;-65
2021/04/15 02:17:06;;;;;;;16.35;9.02;;;2.30;99.90;;;;;;5073220;28;20024;-66
2021/04/15 02:19:41;;;;;;;16.67;9.70;;;2.30;99.90;;;;;;5073117;28;20082;-66
2021/04/15 02:22:25;;;;;;;21.63;9.80;;;2.10;99.90;;;;;;5074236;28;20103;-65
2021/04/15 02:25:01;;;;;;;17.77;10.25;;;2.10;99.90;;;;;;5074219;28;20112;-65
2021/04/15 02:27:51;;;;;;;15.60;9.95;;;2.00;99.90;;;;;;5073556;28;20052;-65
2021/04/15 02:30:26;;;;;;;16.10;10.10;;;2.00;99.90;;;;;;5073542;28;20056;-66
2021/04/15 02:33:06;;;;;;;16.50;10.63;;;1.90;99.90;;;;;;5072636;28;20032;-65
2021/04/15 02:35:49;;;;;;;20.27;10.55;;;1.80;99.90;;;;;;5073818;28;20020;-65
2021/04/15 02:38:19;;;;;;;17.75;10.70;;;1.80;99.90;;;;;;5072292;28;20039;-65
2021/04/15 02:40:53;;;;;;;17.27;11.07;;;1.80;99.90;;;;;;5074036;28;20086;-65
2021/04/15 02:43:30;;;;;;;17.67;10.88;;;1.70;99.90;;;;;;5073850;28;20497;-65
2021/04/15 02:45:59;;;;;;;16.52;11.02;;;1.60;99.90;;;;;;5073990;28;20525;-65
2021/04/15 02:48:29;;;;;;;17.27;11.35;;;1.50;99.90;;;;;;5072089;28;20045;-66
2021/04/15 02:50:59;;;;;;;19.63;11.57;;;1.50;99.90;;;;;;5072231;28;20036;-65
2021/04/15 02:53:30;;;;;;;23.25;12.10;;;1.30;99.90;;;;;;5072479;28;20024;-66
2021/04/15 02:56:05;;;;;;;20.15;11.93;;;1.30;99.90;;;;;;5072789;28;20446;-65
2021/04/15 02:58:42;;;;;;;19.42;12.10;;;1.20;99.90;;;;;;5073886;28;20025;-65
2021/04/15 03:01:13;;;;;;;28.58;13.15;;;1.10;99.90;;;;;;5073856;28;20444;-65
2021/04/15 03:03:42;;;;;;;24.35;14.55;;;1.10;99.90;;;;;;5073860;28;20355;-65
2021/04/15 03:06:14;;;;;;;19.15;12.63;;;1.00;99.90;;;;;;5072660;28;20108;-66
2021/04/15 03:08:43;;;;;;;23.63;13.30;;;1.00;99.90;;;;;;5073459;28;20025;-65
2021/04/15 03:11:17;;;;;;;24.25;14.65;;;1.00;99.90;;;;;;5073215;28;20024;-65
2021/04/15 03:13:53;;;;;;;23.90;14.30;;;1.00;99.90;;;;;;5073749;28;20436;-65
2021/04/15 03:16:24;;;;;;;24.92;14.75;;;1.10;99.90;;;;;;5073689;28;20020;-65
2021/04/15 03:19:16;;;;;;;29.17;16.48;;;1.10;99.90;;;;;;5073393;28;20024;-65
2021/04/15 03:22:03;;;;;;;23.83;14.07;;;1.10;99.90;;;;;;5073606;28;20020;-65
2021/04/15 03:24:35;;;;;;;26.98;14.75;;;1.00;99.90;;;;;;5073626;28;20074;-65
2021/04/15 03:30:13;;;;;;;22.08;13.45;;;0.90;99.90;;;;;;5112233;27;20351;-65
2021/04/15 03:33:05;;;;;;;23.50;12.68;;;0.80;99.90;;;;;;5111623;28;20036;-65
2021/04/15 03:35:42;;;;;;;26.80;15.40;;;0.70;99.90;;;;;;5111607;28;20431;-65
2021/04/15 03:38:16;;;;;;;26.75;14.82;;;0.70;99.90;;;;;;5110076;28;20396;-65
2021/04/15 03:40:47;;;;;;;26.35;15.73;;;0.60;99.90;;;;;;5112041;28;20020;-66
2021/04/15 03:43:20;;;;;;;25.80;14.52;;;0.60;99.90;;;;;;5110209;28;20050;-65
2021/04/15 03:46:02;;;;;;;24.77;13.35;;;0.50;99.90;;;;;;5110477;28;20063;-65
2021/04/15 03:48:34;;;;;;;33.90;15.27;;;0.50;99.90;;;;;;5111501;28;20465;-65
2021/04/15 03:51:07;;;;;;;18.52;10.57;;;0.40;99.90;;;;;;5111688;28;20028;-65
2021/04/15 03:53:35;;;;;;;;;;;0.30;99.90;;;;;;5111455;28;20024;-65
2021/04/15 03:56:06;;;;;;;26.00;14.20;;;0.20;99.90;;;;;;5110921;28;19904;-65
2021/04/15 03:58:39;;;;;;;28.05;16.45;;;0.20;99.90;;;;;;5111150;28;20027;-65
2021/04/15 04:01:09;;;;;;;29.90;16.77;;;0.10;99.90;;;;;;5109576;28;20043;-65
2021/04/15 04:03:39;;;;;;;32.95;16.80;;;0.10;99.90;;;;;;5111333;28;20065;-65
2021/04/15 04:06:15;;;;;;;26.50;17.00;;;0.10;99.90;;;;;;5109882;28;20476;-65
2021/04/15 04:08:46;;;;;;;29.08;17.17;;;0.00;99.90;;;;;;5111153;28;20027;-65
2021/04/15 04:11:16;;;;;;;32.28;17.50;;;0.00;99.90;;;;;;5111174;28;20023;-65
2021/04/15 04:13:45;;;;;;;30.63;16.83;;;0.00;99.90;;;;;;5111141;28;20453;-65
2021/04/15 04:16:22;;;;;;;28.75;17.52;;;0.00;99.90;;;;;;5111094;28;20016;-65
2021/04/15 04:18:56;;;;;;;30.95;17.50;;;-0.10;99.90;;;;;;5109902;28;20024;-65
2021/04/15 04:21:34;;;;;;;29.88;18.05;;;-0.10;99.90;;;;;;5110450;28;20358;-65
2021/04/15 04:24:24;;;;;;;32.25;18.80;;;-0.10;99.90;;;;;;5110784;28;20035;-65
2021/04/15 04:26:57;;;;;;;33.17;19.17;;;-0.10;99.90;;;;;;5110513;28;20032;-65
2021/04/15 04:29:27;;;;;;;;;;;-0.20;99.90;;;;;;5109349;28;20043;-65
2021/04/15 04:31:57;;;;;;;31.88;18.40;;;-0.20;99.90;;;;;;5092757;28;19935;-65
2021/04/15 04:34:24;;;;;;;34.90;18.63;;;-0.20;99.90;;;;;;5109320;28;20024;-65
2021/04/15 04:36:52;;;;;;;31.42;19.35;;;-0.20;99.90;;;;;;5108931;28;20024;-65
2021/04/15 04:39:20;;;;;;;31.67;19.58;;;-0.20;99.90;;;;;;5109684;28;20457;-65
2021/04/15 04:42:25;;;;;;;34.75;18.75;;;-0.20;99.90;;;;;;5096951;28;20028;-65
2021/04/15 04:44:56;;;;;;;29.58;18.38;;;-0.20;99.90;;;;;;5096235;28;20063;-65
2021/04/15 04:47:40;;;;;;;36.00;20.52;;;-0.20;99.90;;;;;;5097070;28;20027;-65
2021/04/15 04:50:13;;;;;;;35.50;19.75;;;-0.10;99.90;;;;;;5096932;28;20020;-65
2021/04/15 04:52:40;;;;;;;36.90;21.40;;;-0.10;99.90;;;;;;5096862;28;20020;-65
2021/04/15 04:55:13;;;;;;;36.90;18.90;;;-0.10;99.90;;;;;;5096806;28;20108;-66
2021/04/15 04:57:41;;;;;;;33.55;19.98;;;0.00;99.90;;;;;;5096434;28;20020;-65
2021/04/15 05:00:12;;;;;;;37.08;19.75;;;0.10;99.90;;;;;;5095556;28;20270;-65
2021/04/15 05:02:38;;;;;;;30.65;18.73;;;0.20;99.90;;;;;;5096660;28;20354;-65
2021/04/15 05:05:26;;;;;;;27.98;16.15;;;0.50;99.90;;;;;;5096638;28;20102;-65
2021/04/15 05:07:59;;;;;;;27.27;16.75;;;0.70;99.90;;;;;;5095909;28;20461;-65
2021/04/15 05:10:27;;;;;;;27.95;15.68;;;1.00;99.90;;;;;;5096221;28;20107;-65
2021/04/15 05:13:04;;;;;;;21.20;13.38;;;1.50;99.90;;;;;;5096476;28;20024;-66
2021/04/15 05:15:30;;;;;;;15.93;11.40;;;1.70;99.90;;;;;;5096607;28;20031;-65
2021/04/15 05:17:56;;;;;;;16.38;11.32;;;1.60;99.90;;;;;;5094648;28;20024;-66
2021/04/15 05:20:24;;;;;;;24.45;12.10;;;1.70;99.90;;;;;;5095145;28;20020;-67
2021/04/15 05:23:06;;;;;;;24.13;13.07;;;1.90;99.90;;;;;;5095135;28;20048;-67
2021/04/15 05:25:38;;;;;;;23.50;12.45;;;2.20;99.90;;;;;;5096207;28;20058;-67
2021/04/15 05:28:06;;;;;;;21.75;11.68;;;2.50;99.90;;;;;;5095587;28;20093;-66
2021/04/15 05:30:41;;;;;;;19.00;10.88;;;2.80;99.90;;;;;;5096157;28;20026;-67
2021/04/15 05:33:10;;;;;;;19.40;11.30;;;3.00;99.90;;;;;;5094679;28;20488;-65
2021/04/15 05:35:41;;;;;;;20.92;12.20;;;3.40;99.90;;;;;;5078558;28;20075;-66
2021/04/15 05:38:08;;;;;;;18.85;11.38;;;3.70;99.90;;;;;;5094184;28;20020;-66
2021/04/15 05:40:36;;;;;;;17.73;9.93;;;4.10;99.90;;;;;;5094176;28;20075;-66
2021/04/15 05:43:27;;;;;;;15.68;9.63;;;5.10;99.90;;;;;;5094163;28;20488;-66
2021/04/15 05:46:02;;;;;;;17.05;9.50;;;6.30;99.90;;;;;;5093897;28;20035;-66
2021/04/15 05:48:29;;;;;;;12.13;8.75;;;7.90;99.90;;;;;;5094189;28;20036;-66
2021/04/15 05:50:56;;;;;;;14.75;8.40;;;9.20;99.90;;;;;;5093699;28;20028;-66
2021/04/15 05:53:34;;;;;;;11.32;7.03;;;9.80;99.90;;;;;;5094928;28;20366;-66
2021/04/15 05:56:07;;;;;;;12.15;7.47;;;9.50;99.90;;;;;;5095570;28;20436;-66
2021/04/15 05:59:04;;;;;;;12.65;7.53;;;9.30;99.90;;;;;;5093946;28;20035;-66
2021/04/15 06:01:36;;;;;;;11.82;6.95;;;9.70;99.90;;;;;;5094807;28;20024;-67
2021/04/15 06:04:25;;;;;;;11.15;7.18;;;9.40;99.90;;;;;;5077172;28;20534;-66
2021/04/15 06:06:52;;;;;;;9.18;7.00;;;10.00;99.90;;;;;;5095364;28;20032;-65
2021/04/15 06:09:18;;;;;;;11.73;7.30;;;10.50;99.90;;;;;;5094997;28;20034;-67
2021/04/15 06:12:14;;;;;;;10.23;6.90;;;10.70;99.90;;;;;;5076606;28;20020;-67
2021/04/15 06:14:48;;;;;;;8.10;6.72;;;11.00;99.90;;;;;;5094222;28;20026;-66
2021/04/15 06:20:09;;;;;;;11.93;7.75;;;8.50;99.90;;;;;;5089543;28;20352;-65
2021/04/15 06:22:40;;;;;;;10.60;7.95;;;8.00;99.90;;;;;;5089316;28;20473;-65
2021/04/15 06:25:14;;;;;;;17.20;8.80;;;8.00;99.90;;;;;;5089908;28;20058;-65
2021/04/15 06:27:40;;;;;;;10.48;7.57;;;8.10;99.90;;;;;;5089214;28;20115;-65
2021/04/15 06:30:14;;;;;;;14.30;7.32;;;8.30;99.90;;;;;;5080737;28;20519;-65
2021/04/15 06:33:07;;;;;;;10.63;6.93;;;8.30;99.90;;;;;;5071362;28;20067;-67
2021/04/15 06:35:34;;;;;;;13.68;8.05;;;8.40;99.90;;;;;;5089757;28;20039;-67
2021/04/15 06:38:21;;;;;;;14.63;7.25;;;8.10;99.90;;;;;;5090516;28;20115;-67
2021/04/15 06:41:19;;;;;;;12.15;7.20;;;8.40;99.90;;;;;;5090384;28;20477;-67
2021/04/15 06:44:22;;;;;;;11.63;7.25;;;9.00;99.90;;;;;;5072716;28;20027;-65
2021/04/15 06:47:20;;;;;;;10.63;6.65;;;9.60;99.90;;;;;;5094280;28;20432;-67
2021/04/15 06:50:11;;;;;;;11.75;6.97;;;12.00;99.90;;;;;;5068487;28;20025;-67
2021/04/15 06:52:53;;;;;;;13.80;7.00;;;11.10;99.90;;;;;;5069728;28;20028;-67
2021/04/15 06:55:58;;;;;;;11.80;6.85;;;10.50;99.90;;;;;;5069495;28;20075;-67
2021/04/15 06:58:39;;;;;;;11.65;7.18;;;10.10;99.90;;;;;;5069548;28;20075;-67
2021/04/15 07:01:30;;;;;;;10.98;6.20;;;10.20;99.90;;;;;;5069771;28;20378;-67
2021/04/15 07:04:12;;;;;;;13.45;7.05;;;11.70;99.90;;;;;;5072902;28;20021;-67
2021/04/15 07:07:19;;;;;;;11.90;6.43;;;11.70;99.90;;;;;;5080200;28;20096;-67
2021/04/15 07:10:14;;;;;;;10.70;5.90;;;12.00;99.90;;;;;;5079395;28;20017;-67
2021/04/15 07:15:41;;;;;;;13.10;6.47;;;12.90;99.90;;;;;;5098011;27;20360;-65
2021/04/15 07:18:37;;;;;;;15.65;6.47;;;13.40;99.90;;;;;;5085975;28;20051;-66
2021/04/15 07:21:43;;;;;;;10.68;5.70;;;12.80;99.90;;;;;;5088945;28;20031;-66
2021/04/15 07:24:37;;;;;;;9.63;6.57;;;11.70;99.90;;;;;;5089423;28;20115;-66
2021/04/15 07:30:22;;;;;;;11.95;7.00;;;11.80;99.90;;;;;;5100755;27;20363;-66
2021/04/15 07:33:11;;;;;;;14.30;8.32;;;12.40;99.90;;;;;;5074868;28;20054;-66
2021/04/15 07:36:02;;;;;;;17.70;8.88;;;13.80;99.90;;;;;;5106258;28;20041;-66
2021/04/15 07:38:57;;;;;;;18.13;9.65;;;13.70;99.90;;;;;;5110745;28;20507;-67
2021/04/15 07:42:03;;;;;;;17.75;10.20;;;14.30;99.90;;;;;;5094653;28;20040;-68
2021/04/15 07:44:44;;;;;;;18.40;9.82;;;14.20;99.90;;;;;;5102260;28;20035;-66
2021/04/15 07:47:40;;;;;;;15.82;8.95;;;13.80;99.90;;;;;;5110386;28;20038;-66
2021/04/15 07:50:32;;;;;;;18.02;9.18;;;12.80;99.90;;;;;;5108868;28;20439;-65
2021/04/15 07:53:23;;;;;;;17.45;8.02;;;11.70;99.90;;;;;;5107546;28;20056;-66
2021/04/15 07:56:18;;;;;;;16.17;8.57;;;13.20;99.90;;;;;;5090006;28;20557;-66
2021/04/15 08:01:59;;;;;;;17.90;8.55;;;13.60;99.90;;;;;;5111914;27;20347;-68
2021/04/15 08:05:05;;;;;;;13.80;7.63;;;13.80;99.90;;;;;;5109985;28;20455;-68
2021/04/15 08:08:03;;;;;;;10.35;5.03;;;13.60;99.90;;;;;;5108786;28;20111;-68
2021/04/15 08:10:46;;;;;;;10.63;5.10;;;11.30;99.90;;;;;;5110188;28;20542;-67
2021/04/15 08:13:52;;;;;;;11.15;5.75;;;10.00;99.90;;;;;;5109816;28;20104;-67
2021/04/15 08:16:38;;;;;;;10.70;4.97;;;8.70;99.90;;;;;;5110191;28;20032;-66
2021/04/15 08:19:35;;;;;;;10.63;5.47;;;8.60;99.90;;;;;;5090613;28;20046;-67
2021/04/15 08:22:31;;;;;;;11.90;6.32;;;9.70;99.90;;;;;;5092861;28;20020;-67
2021/04/15 08:25:28;;;;;;;14.77;6.32;;;10.50;99.90;;;;;;5110515;28;20016;-67
2021/04/15 08:30:55;;;;;;;13.73;7.53;;;9.80;99.90;;;;;;5091297;28;20406;-67
2021/04/15 08:34:01;;;;;;;14.15;6.50;;;9.80;99.90;;;;;;5057886;28;20386;-67
2021/04/15 08:36:39;;;;;;;15.55;6.45;;;10.40;99.90;;;;;;5069860;28;20100;-67
2021/04/15 08:39:31;;;;;;;13.48;5.63;;;11.30;99.90;;;;;;5071273;28;20024;-67
2021/04/15 08:44:57;;;;;;;12.23;6.72;;;11.70;99.90;;;;;;5091341;27;20763;-68
2021/04/15 08:47:52;;;;;;;12.98;6.57;;;12.70;99.90;;;;;;5085615;28;20028;-68
2021/04/15 08:50:58;;;;;;;11.20;6.07;;;11.40;99.90;;;;;;5054999;28;20488;-68
2021/04/15 08:53:56;;;;;;;15.07;6.80;;;10.80;99.90;;;;;;5086055;28;20490;-67
2021/04/15 08:56:29;;;;;;;15.65;7.57;;;9.70;99.90;;;;;;5088773;28;20032;-67
2021/04/15 08:59:21;;;;;;;14.77;8.53;;;9.60;99.90;;;;;;5088571;28;20032;-67
2021/04/15 09:02:26;;;;;;;16.65;8.70;;;9.50;99.90;;;;;;5088499;28;20051;-67
2021/04/15 09:05:31;;;;;;;14.70;9.98;;;10.10;99.90;;;;;;5068728;28;20109;-67
2021/04/15 09:10:52;;;;;;;20.60;9.77;;;9.20;99.90;;;;;;5090574;28;20352;-68
2021/04/15 09:13:42;;;;;;;18.65;9.80;;;9.10;99.90;;;;;;5082445;28;20778;-67
2021/04/15 09:16:45;;;;;;;14.15;9.82;;;8.40;99.90;;;;;;5087126;28;20031;-67
2021/04/15 09:19:32;;;;;;;13.57;8.02;;;8.00;99.90;;;;;;5087672;28;20031;-66
2021/04/15 09:22:33;;;;;;;17.88;8.13;;;8.10;99.90;;;;;;5083744;28;20532;-67
2021/04/15 09:25:05;;;;;;;17.30;8.50;;;8.10;99.90;;;;;;5090024;28;20036;-67
2021/04/15 09:28:01;;;;;;;13.80;8.43;;;8.40;99.90;;;;;;5089379;28;20028;-67
2021/04/15 09:31:08;;;;;;;14.45;7.82;;;9.50;99.90;;;;;;5088168;28;20039;-67
2021/04/15 09:34:13;;;;;;;13.50;8.15;;;10.00;99.90;;;;;;5070196;28;20048;-67
2021/04/15 09:37:09;;;;;;;12.10;7.35;;;10.90;99.90;;;;;;5077843;28;20097;-67
2021/04/15 09:40:00;;;;;;;10.25;7.47;;;10.90;99.90;;;;;;5089681;28;20028;-67
2021/04/15 09:42:58;;;;;;;10.95;7.32;;;10.50;99.90;;;;;;5073572;28;20037;-67
2021/04/15 09:45:35;;;;;;;16.95;8.45;;;9.80;99.90;;;;;;5068957;28;20044;-67
2021/04/15 09:48:30;;;;;;;14.13;8.35;;;8.40;99.90;;;;;;5069933;28;20075;-67
2021/04/15 09:51:09;;;;;;;15.45;8.65;;;8.80;99.90;;;;;;5087304;28;20397;-67
2021/04/15 09:56:36;;;;;;;15.70;8.13;;;8.50;99.90;;;;;;5110401;27;20412;-67
2021/04/15 09:59:16;;;;;;;13.65;8.57;;;8.30;99.90;;;;;;5089970;28;20024;-67
2021/04/15 10:01:48;;;;;;;15.43;7.60;;;8.30;99.90;;;;;;5092449;28;20074;-67
2021/04/15 10:04:30;;;;;;;16.73;6.97;;;8.70;99.90;;;;;;5110329;28;20023;-67
2021/04/15 10:07:11;;;;;;;13.95;6.30;;;9.30;99.90;;;;;;5108238;28;20028;-67
2021/04/15 10:12:40;;;;;;;10.05;5.70;;;11.60;99.90;;;;;;5106901;27;20431;-66
2021/04/15 10:15:42;;;;;;;12.30;6.22;;;12.00;99.70;;;;;;5105522;28;20085;-67
2021/04/15 10:18:47;;;;;;;11.13;6.38;;;11.40;99.90;;;;;;5089107;28;20023;-66
2021/04/15 10:21:38;;;;;;;12.18;5.68;;;11.30;99.90;;;;;;5090109;28;20386;-68
2021/04/15 10:24:24;;;;;;;14.68;6.68;;;10.50;99.90;;;;;;5091215;28;20025;-67
2021/04/15 10:30:17;;;;;;;18.80;6.90;;;9.90;99.90;;;;;;5096483;27;1356013;-65
2021/04/15 10:33:12;;;;;;;10.55;6.10;;;9.60;99.90;;;;;;5128787;28;20031;-67
2021/04/15 10:36:17;;;;;;;14.07;6.95;;;10.20;99.90;;;;;;5123343;28;20042;-67
2021/04/15 10:39:14;;;;;;;11.43;5.72;;;10.20;99.90;;;;;;5110072;28;20066;-65
2021/04/15 10:42:13;;;;;;;17.15;6.22;;;10.10;99.90;;;;;;5111283;28;20020;-67
2021/04/15 10:45:14;;;;;;;12.30;5.60;;;9.60;99.90;;;;;;5109475;28;20024;-67
2021/04/15 10:48:02;;;;;;;14.90;6.05;;;9.50;99.90;;;;;;5105163;28;20047;-67
2021/04/15 10:50:39;;;;;;;12.90;5.95;;;10.20;99.90;;;;;;5101010;28;20032;-68
2021/04/15 10:53:18;;;;;;;13.77;5.13;;;10.90;99.90;;;;;;5093045;28;20405;-68
2021/04/15 10:55:49;;;;;;;14.25;5.88;;;10.20;99.90;;;;;;5110027;28;20016;-67
2021/04/15 10:58:36;;;;;;;13.90;5.78;;;9.60;99.90;;;;;;5123952;28;20410;-67
2021/04/15 11:01:37;;;;;;;10.82;6.30;;;9.70;99.90;;;;;;5130840;28;20034;-67
2021/04/15 11:06:53;;;;;;;12.80;5.28;;;9.50;99.90;;;;;;5088523;28;20730;-67
2021/04/15 11:09:42;;;;;;;10.32;4.85;;;9.20;99.90;;;;;;5081341;28;20024;-67
2021/04/15 11:12:22;;;;;;;9.57;5.38;;;9.40;99.90;;;;;;5070630;28;20028;-67
2021/04/15 11:15:01;;;;;;;11.45;5.53;;;10.10;99.90;;;;;;5085387;28;20085;-67
2021/04/15 11:17:41;;;;;;;10.18;5.53;;;10.80;99.90;;;;;;5069897;28;20482;-67
2021/04/15 11:20:31;;;;;;;7.88;4.88;;;11.30;99.90;;;;;;5070819;28;20032;-67
2021/04/15 11:23:06;;;;;;;8.85;5.32;;;11.20;99.90;;;;;;5069460;28;20017;-67
2021/04/15 11:25:51;;;;;;;10.77;4.28;;;10.90;99.90;;;;;;5075151;28;20031;-67
2021/04/15 11:28:25;;;;;;;10.88;4.90;;;10.50;99.90;;;;;;5081558;28;20016;-67
2021/04/15 11:30:54;;;;;;;6.95;4.47;;;10.10;99.90;;;;;;5087098;28;20024;-67
2021/04/15 11:33:42;;;;;;;10.48;4.80;;;10.50;99.90;;;;;;5082436;28;20025;-68
2021/04/15 11:36:14;;;;;;;10.30;4.85;;;10.30;99.90;;;;;;5069138;28;20464;-67
2021/04/15 11:38:41;;;;;;;10.32;5.18;;;10.30;99.90;;;;;;5070525;28;20111;-67
2021/04/15 11:41:28;;;;;;;10.45;5.15;;;10.40;99.90;;;;;;5069819;28;20111;-68
2021/04/15 11:44:13;;;;;;;10.68;4.50;;;10.00;99.90;;;;;;5078196;28;20043;-68
2021/04/15 11:46:57;;;;;;;10.02;5.45;;;9.80;99.90;;;;;;5088532;28;20397;-67
2021/04/15 11:49:29;;;;;;;10.55;5.13;;;9.70;99.90;;;;;;5087993;28;20535;-67
2021/04/15 11:52:01;;;;;;;11.90;5.07;;;9.70;99.90;;;;;;5089651;28;20046;-67
2021/04/15 11:54:45;;;;;;;8.95;4.93;;;9.50;99.90;;;;;;5080881;28;20464;-67
2021/04/15 11:57:32;;;;;;;14.60;5.65;;;9.50;99.90;;;;;;5086771;28;20036;-68
2021/04/15 12:02:58;;;;;;;9.65;5.22;;;10.00;99.90;;;;;;5110891;27;20351;-67
2021/04/15 12:05:30;;;;;;;10.45;5.35;;;10.00;99.90;;;;;;5107936;28;20556;-67
2021/04/15 12:08:22;;;;;;;12.93;6.10;;;10.00;99.90;;;;;;5106586;28;20380;-67
2021/04/15 12:11:20;;;;;;;13.27;5.82;;;10.10;99.90;;;;;;5106279;28;20093;-67
2021/04/15 12:13:58;;;;;;;11.32;5.65;;;10.30;99.90;;;;;;5109047;28;20362;-67
2021/04/15 12:16:49;;;;;;;11.30;4.97;;;10.70;99.90;;;;;;5109237;28;20077;-67
2021/04/15 12:19:48;;;;;;;7.82;4.10;;;11.10;99.50;;;;;;5110509;28;20461;-67
2021/04/15 12:22:29;;;;;;;8.95;4.35;;;11.20;94.50;;;;;;5106794;28;20099;-67
2021/04/15 12:25:03;;;;;;;9.02;4.20;;;11.40;96.10;;;;;;5105915;28;20029;-67
2021/04/15 12:27:32;;;;;;;7.47;3.92;;;11.00;92.40;;;;;;5094562;28;20108;-67
2021/04/15 12:30:08;;;;;;;8.38;4.78;;;10.90;94.20;;;;;;5088794;28;20032;-67
2021/04/15 12:33:03;;;;;;;10.65;4.70;;;10.90;93.80;;;;;;5097189;28;20032;-67
2021/04/15 12:35:52;;;;;;;7.88;4.35;;;10.90;94.60;;;;;;5110010;28;20027;-66
2021/04/15 12:40:58;;;;;;;13.77;5.38;;;10.80;95.00;;;;;;5110830;27;20347;-67
2021/04/15 12:43:28;;;;;;;8.82;4.20;;;11.50;96.50;;;;;;5093532;28;20535;-67
2021/04/15 12:45:58;;;;;;;4.93;3.25;;;11.70;94.60;;;;;;5090636;28;20465;-67
2021/04/15 12:48:36;;;;;;;6.60;3.83;;;11.30;83.50;;;;;;5108787;28;20023;-67
2021/04/15 12:51:04;;;;;;;7.38;3.78;;;10.80;81.50;;;;;;5091191;28;20028;-68
2021/04/15 12:53:34;;;;;;;10.13;4.32;;;11.20;86.20;;;;;;5089352;28;20021;-67
2021/04/15 12:56:00;;;;;;;14.68;7.07;;;11.10;83.10;;;;;;5096291;28;20039;-67
2021/04/15 12:58:25;;;;;;;8.15;3.70;;;10.60;80.80;;;;;;5109580;28;20031;-67
2021/04/15 13:00:56;;;;;;;5.13;2.97;;;10.20;80.70;;;;;;5107821;28;20035;-67
2021/04/15 13:03:27;;;;;;;7.10;3.38;;;10.10;72.00;;;;;;5109092;28;20099;-67
2021/04/15 13:05:57;;;;;;;10.77;3.80;;;10.00;73.70;;;;;;5090402;28;20051;-67
2021/04/15 13:08:37;;;;;;;7.45;3.80;;;10.40;76.60;;;;;;5089834;28;20020;-67
2021/04/15 13:14:06;;;;;;;10.48;5.28;;;9.90;77.70;;;;;;5109579;27;20120;-65
2021/04/15 13:22:11;;;;;;;9.30;3.97;;;10.00;90.40;;;;;;5071835;28;20711;-67
2021/04/15 13:25:04;;;;;;;7.22;3.28;;;10.30;88.80;;;;;;5069936;28;20498;-67
2021/04/15 13:27:38;;;;;;;8.20;4.40;;;10.40;90.20;;;;;;5069589;28;20029;-67
2021/04/15 13:30:24;;;;;;;7.00;3.80;;;10.40;82.70;;;;;;5070109;28;20028;-67
2021/04/15 13:33:09;;;;;;;6.63;4.03;;;10.50;82.30;;;;;;5069805;28;20554;-67
2021/04/15 13:43:46;;;;;;;7.10;3.70;;;10.60;85.10;;;;;;5108265;27;20367;-67
2021/04/15 13:46:35;;;;;;;8.85;4.13;;;10.60;80.40;;;;;;5089818;28;20594;-67
2021/04/15 13:54:31;;;;;;;6.20;3.35;;;10.30;78.80;;;;;;5105181;27;20325;-67
2021/04/15 13:57:05;;;;;;;6.90;3.28;;;9.90;68.90;;;;;;5100348;28;20504;-67
2021/04/15 14:04:54;;;;;;;7.00;4.82;;;10.30;72.30;;;;;;5110403;27;20303;-67
2021/04/15 14:07:33;;;;;;;5.15;3.58;;;10.90;73.70;;;;;;5102749;28;20020;-67
2021/04/15 14:15:55;;;;;;;5.60;3.20;;;10.30;71.90;;;;;;5101262;27;20412;-67
2021/04/15 14:18:44;;;;;;;6.40;3.83;;;10.30;72.60;;;;;;5100137;28;20099;-67
2021/04/15 14:21:29;;;;;;;4.07;3.35;;;10.10;73.50;;;;;;5099484;28;20027;-67
2021/04/15 14:23:59;;;;;;;7.93;3.97;;;10.20;79.70;;;;;;5093375;28;20055;-67
2021/04/15 14:26:31;;;;;;;10.90;3.63;;;10.50;76.70;;;;;;5094819;28;20069;-65
2021/04/15 14:29:31;;;;;;;6.95;3.80;;;11.00;72.30;;;;;;5088422;28;20032;-67
2021/04/15 14:32:02;;;;;;;5.72;3.53;;;11.30;69.00;;;;;;5086931;28;20028;-67
2021/04/15 14:34:34;;;;;;;6.47;3.00;;;11.20;62.60;;;;;;5075480;28;20094;-67
2021/04/15 14:37:03;;;;;;;5.03;3.40;;;10.70;61.70;;;;;;5089666;28;20132;-67
2021/04/15 14:39:50;;;;;;;8.00;3.28;;;10.20;59.10;;;;;;5087736;28;20067;-67
2021/04/15 14:42:33;;;;;;;10.13;3.72;;;10.40;64.60;;;;;;5089941;28;20020;-67
2021/04/15 14:45:21;;;;;;;6.10;3.85;;;10.30;63.20;;;;;;5110049;28;20032;-67
2021/04/15 14:47:51;;;;;;;6.25;3.75;;;10.40;64.90;;;;;;5108650;28;20024;-67
2021/04/15 14:50:35;;;;;;;6.60;3.30;;;10.20;66.70;;;;;;5092184;28;20024;-67
2021/04/15 14:53:18;;;;;;;8.18;3.40;;;9.90;68.40;;;;;;5090264;28;20043;-68
2021/04/15 14:55:47;;;;;;;9.60;3.70;;;10.00;68.70;;;;;;5103626;28;20381;-65
2021/04/15 14:58:21;;;;;;;6.00;3.42;;;9.70;63.40;;;;;;5089851;28;20066;-66
2021/04/15 15:00:50;;;;;;;5.65;3.42;;;9.80;63.50;;;;;;5109907;28;20031;-66